sensor_id;sensor_type;location;lat;lon;timestamp;temperature;humidity
52034;DHT22;38045;52.988;6.536;2023-04-03T00:00:49;3.40;99.90
52034;DHT22;38045;52.988;6.536;2023-04-03T00:03:15;3.40;99.90
52034;DHT22;38045;52.988;6.536;2023-04-03T00:05:41;3.40;99.90
52034;DHT22;38045;52.988;6.536;2023-04-03T00:08:07;3.30;99.90
52034;DHT22;38045;52.988;6.536;2023-04-03T00:10:35;3.30;99.90
52034;DHT22;38045;52.988;6.536;2023-04-03T00:13:03;3.20;99.90
52034;DHT22;38045;52.988;6.536;2023-04-03T00:15:28;3.20;99.90
52034;DHT22;38045;52.988;6.536;2023-04-03T00:17:54;3.20;99.90
52034;DHT22;38045;52.988;6.536;2023-04-03T00:20:20;3.20;99.90
52034;DHT22;38045;52.988;6.536;2023-04-03T00:22:45;3.20;99.90
52034;DHT22;38045;52.988;6.536;2023-04-03T00:25:11;3.10;99.90
52034;DHT22;38045;52.988;6.536;2023-04-03T00:27:38;3.00;99.90
52034;DHT22;38045;52.988;6.536;2023-04-03T00:30:05;3.00;99.90
52034;DHT22;38045;52.988;6.536;2023-04-03T00:32:32;3.10;99.90
52034;DHT22;38045;52.988;6.536;2023-04-03T00:34:57;3.10;99.90
52034;DHT22;38045;52.988;6.536;2023-04-03T00:37:23;3.00;99.90
52034;DHT22;38045;52.988;6.536;2023-04-03T00:39:49;3.00;99.90
52034;DHT22;38045;52.988;6.536;2023-04-03T00:42:14;2.90;99.90
52034;DHT22;38045;52.988;6.536;2023-04-03T00:47:08;2.70;99.90
52034;DHT22;38045;52.988;6.536;2023-04-03T00:49:35;2.70;99.90
52034;DHT22;38045;52.988;6.536;2023-04-03T00:52:02;2.70;99.90
52034;DHT22;38045;52.988;6.536;2023-04-03T00:54:28;2.70;99.90
52034;DHT22;38045;52.988;6.536;2023-04-03T00:56:54;2.70;99.90
52034;DHT22;38045;52.988;6.536;2023-04-03T00:59:24;2.70;99.90
52034;DHT22;38045;52.988;6.536;2023-04-03T01:01:53;2.70;99.90
52034;DHT22;38045;52.988;6.536;2023-04-03T01:06:56;2.50;99.90
52034;DHT22;38045;52.988;6.536;2023-04-03T01:09:22;2.60;99.90
52034;DHT22;38045;52.988;6.536;2023-04-03T01:11:48;2.60;99.90
52034;DHT22;38045;52.988;6.536;2023-04-03T01:14:13;2.60;99.90
52034;DHT22;38045;52.988;6.536;2023-04-03T01:16:40;2.60;99.90
52034;DHT22;38045;52.988;6.536;2023-04-03T01:19:10;2.60;99.90
52034;DHT22;38045;52.988;6.536;2023-04-03T01:21:59;2.60;99.90
52034;DHT22;38045;52.988;6.536;2023-04-03T01:24:34;2.60;99.90
52034;DHT22;38045;52.988;6.536;2023-04-03T01:27:03;2.50;99.90
52034;DHT22;38045;52.988;6.536;2023-04-03T01:29:30;2.40;99.90
52034;DHT22;38045;52.988;6.536;2023-04-03T01:31:58;2.40;99.90
52034;DHT22;38045;52.988;6.536;2023-04-03T01:34:24;2.40;99.90
52034;DHT22;38045;52.988;6.536;2023-04-03T01:36:50;2.40;99.90
52034;DHT22;38045;52.988;6.536;2023-04-03T01:39:17;2.40;99.90
52034;DHT22;38045;52.988;6.536;2023-04-03T01:41:44;2.30;99.90
52034;DHT22;38045;52.988;6.536;2023-04-03T01:44:10;2.30;99.90
52034;DHT22;38045;52.988;6.536;2023-04-03T01:46:36;2.30;99.90
52034;DHT22;38045;52.988;6.536;2023-04-03T01:49:03;2.20;99.90
52034;DHT22;38045;52.988;6.536;2023-04-03T01:51:29;2.20;99.90
52034;DHT22;38045;52.988;6.536;2023-04-03T01:53:55;2.10;99.90
52034;DHT22;38045;52.988;6.536;2023-04-03T01:56:21;2.00;99.90
52034;DHT22;38045;52.988;6.536;2023-04-03T01:58:46;2.00;99.90
52034;DHT22;38045;52.988;6.536;2023-04-03T02:01:12;2.00;99.90
52034;DHT22;38045;52.988;6.536;2023-04-03T02:03:38;2.00;99.90
52034;DHT22;38045;52.988;6.536;2023-04-03T02:06:03;2.00;99.90
52034;DHT22;38045;52.988;6.536;2023-04-03T02:08:29;2.00;99.90
52034;DHT22;38045;52.988;6.536;2023-04-03T02:10:55;2.00;99.90
52034;DHT22;38045;52.988;6.536;2023-04-03T02:13:20;2.00;99.90
52034;DHT22;38045;52.988;6.536;2023-04-03T02:15:46;2.00;99.90
52034;DHT22;38045;52.988;6.536;2023-04-03T02:18:12;2.00;99.90
52034;DHT22;38045;52.988;6.536;2023-04-03T02:20:38;2.00;99.90
52034;DHT22;38045;52.988;6.536;2023-04-03T02:23:03;2.00;99.90
52034;DHT22;38045;52.988;6.536;2023-04-03T02:25:30;1.90;99.90
52034;DHT22;38045;52.988;6.536;2023-04-03T02:27:56;1.90;99.90
52034;DHT22;38045;52.988;6.536;2023-04-03T02:30:22;1.90;99.90
52034;DHT22;38045;52.988;6.536;2023-04-03T02:32:48;1.90;99.90
52034;DHT22;38045;52.988;6.536;2023-04-03T02:35:13;1.80;99.90
52034;DHT22;38045;52.988;6.536;2023-04-03T02:37:39;1.80;99.90
52034;DHT22;38045;52.988;6.536;2023-04-03T02:40:06;1.80;99.90
52034;DHT22;38045;52.988;6.536;2023-04-03T02:42:32;1.80;99.90
52034;DHT22;38045;52.988;6.536;2023-04-03T02:44:57;1.80;99.90
52034;DHT22;38045;52.988;6.536;2023-04-03T02:47:26;1.80;99.90
52034;DHT22;38045;52.988;6.536;2023-04-03T02:49:52;1.80;99.90
52034;DHT22;38045;52.988;6.536;2023-04-03T02:52:18;1.80;99.90
52034;DHT22;38045;52.988;6.536;2023-04-03T02:54:44;1.80;99.90
52034;DHT22;38045;52.988;6.536;2023-04-03T02:57:09;1.70;99.90
52034;DHT22;38045;52.988;6.536;2023-04-03T02:59:38;1.70;99.90
52034;DHT22;38045;52.988;6.536;2023-04-03T03:02:08;1.70;99.90
52034;DHT22;38045;52.988;6.536;2023-04-03T03:04:34;1.70;99.90
52034;DHT22;38045;52.988;6.536;2023-04-03T03:07:00;1.70;99.90
52034;DHT22;38045;52.988;6.536;2023-04-03T03:09:26;1.70;99.90
52034;DHT22;38045;52.988;6.536;2023-04-03T03:11:52;1.70;99.90
52034;DHT22;38045;52.988;6.536;2023-04-03T03:14:17;1.70;99.90
52034;DHT22;38045;52.988;6.536;2023-04-03T03:16:43;1.60;99.90
52034;DHT22;38045;52.988;6.536;2023-04-03T03:19:08;1.60;99.90
52034;DHT22;38045;52.988;6.536;2023-04-03T03:21:34;1.50;99.90
52034;DHT22;38045;52.988;6.536;2023-04-03T03:24:00;1.50;99.90
52034;DHT22;38045;52.988;6.536;2023-04-03T03:26:25;1.50;99.90
52034;DHT22;38045;52.988;6.536;2023-04-03T03:28:51;1.50;99.90
52034;DHT22;38045;52.988;6.536;2023-04-03T03:31:17;1.40;99.90
52034;DHT22;38045;52.988;6.536;2023-04-03T03:33:43;1.30;99.90
52034;DHT22;38045;52.988;6.536;2023-04-03T03:36:08;1.30;99.90
52034;DHT22;38045;52.988;6.536;2023-04-03T03:38:34;1.20;99.90
52034;DHT22;38045;52.988;6.536;2023-04-03T03:41:00;1.20;99.90
52034;DHT22;38045;52.988;6.536;2023-04-03T03:43:25;1.20;99.90
52034;DHT22;38045;52.988;6.536;2023-04-03T03:45:52;1.20;99.90
52034;DHT22;38045;52.988;6.536;2023-04-03T03:48:18;1.10;99.90
52034;DHT22;38045;52.988;6.536;2023-04-03T03:50:44;1.10;99.90
52034;DHT22;38045;52.988;6.536;2023-04-03T03:53:10;1.10;99.90
52034;DHT22;38045;52.988;6.536;2023-04-03T03:55:35;1.10;99.90
52034;DHT22;38045;52.988;6.536;2023-04-03T03:58:01;1.10;99.90
52034;DHT22;38045;52.988;6.536;2023-04-03T04:00:27;1.10;99.90
52034;DHT22;38045;52.988;6.536;2023-04-03T04:02:53;1.10;99.90
52034;DHT22;38045;52.988;6.536;2023-04-03T04:05:19;1.10;99.90
52034;DHT22;38045;52.988;6.536;2023-04-03T04:07:45;1.10;99.90
52034;DHT22;38045;52.988;6.536;2023-04-03T04:10:10;1.10;99.90
52034;DHT22;38045;52.988;6.536;2023-04-03T04:12:36;1.10;99.90
52034;DHT22;38045;52.988;6.536;2023-04-03T04:15:03;1.00;99.90
52034;DHT22;38045;52.988;6.536;2023-04-03T04:17:28;1.00;99.90
52034;DHT22;38045;52.988;6.536;2023-04-03T04:19:54;0.90;99.90
52034;DHT22;38045;52.988;6.536;2023-04-03T04:22:19;0.90;99.90
52034;DHT22;38045;52.988;6.536;2023-04-03T04:24:45;0.90;99.90
52034;DHT22;38045;52.988;6.536;2023-04-03T04:27:11;0.90;99.90
52034;DHT22;38045;52.988;6.536;2023-04-03T04:29:36;0.90;99.90
52034;DHT22;38045;52.988;6.536;2023-04-03T04:32:05;0.90;99.90
52034;DHT22;38045;52.988;6.536;2023-04-03T04:34:31;0.90;99.90
52034;DHT22;38045;52.988;6.536;2023-04-03T04:36:57;0.90;99.90
52034;DHT22;38045;52.988;6.536;2023-04-03T04:39:22;0.90;99.90
52034;DHT22;38045;52.988;6.536;2023-04-03T04:41:48;0.80;99.90
52034;DHT22;38045;52.988;6.536;2023-04-03T04:44:13;0.70;99.90
52034;DHT22;38045;52.988;6.536;2023-04-03T04:46:40;0.70;99.90
52034;DHT22;38045;52.988;6.536;2023-04-03T04:49:05;0.70;99.90
52034;DHT22;38045;52.988;6.536;2023-04-03T04:51:31;0.70;99.90
52034;DHT22;38045;52.988;6.536;2023-04-03T04:53:56;0.80;99.90
52034;DHT22;38045;52.988;6.536;2023-04-03T04:56:22;0.70;99.90
52034;DHT22;38045;52.988;6.536;2023-04-03T04:58:48;0.70;99.90
52034;DHT22;38045;52.988;6.536;2023-04-03T05:01:13;0.80;99.90
52034;DHT22;38045;52.988;6.536;2023-04-03T05:03:39;0.80;99.90
52034;DHT22;38045;52.988;6.536;2023-04-03T05:06:05;0.80;99.90
52034;DHT22;38045;52.988;6.536;2023-04-03T05:08:31;0.70;99.90
52034;DHT22;38045;52.988;6.536;2023-04-03T05:10:57;0.70;99.90
52034;DHT22;38045;52.988;6.536;2023-04-03T05:13:22;0.70;99.90
52034;DHT22;38045;52.988;6.536;2023-04-03T05:15:48;0.80;99.90
52034;DHT22;38045;52.988;6.536;2023-04-03T05:18:13;1.10;99.90
52034;DHT22;38045;52.988;6.536;2023-04-03T05:20:40;0.70;99.90
52034;DHT22;38045;52.988;6.536;2023-04-03T05:23:06;0.70;99.90
52034;DHT22;38045;52.988;6.536;2023-04-03T05:25:31;0.60;99.90
52034;DHT22;38045;52.988;6.536;2023-04-03T05:27:57;0.70;99.90
52034;DHT22;38045;52.988;6.536;2023-04-03T05:30:23;0.70;99.90
52034;DHT22;38045;52.988;6.536;2023-04-03T05:32:48;0.70;99.90
52034;DHT22;38045;52.988;6.536;2023-04-03T05:35:14;0.80;99.90
52034;DHT22;38045;52.988;6.536;2023-04-03T05:37:40;0.90;99.90
52034;DHT22;38045;52.988;6.536;2023-04-03T05:40:06;0.80;99.90
52034;DHT22;38045;52.988;6.536;2023-04-03T05:42:32;0.90;99.90
52034;DHT22;38045;52.988;6.536;2023-04-03T05:44:58;0.90;99.90
52034;DHT22;38045;52.988;6.536;2023-04-03T05:47:24;0.90;99.90
52034;DHT22;38045;52.988;6.536;2023-04-03T05:49:50;1.00;99.90
52034;DHT22;38045;52.988;6.536;2023-04-03T05:52:34;1.00;99.90
52034;DHT22;38045;52.988;6.536;2023-04-03T05:55:00;1.00;99.90
52034;DHT22;38045;52.988;6.536;2023-04-03T05:57:26;1.10;99.90
52034;DHT22;38045;52.988;6.536;2023-04-03T05:59:52;1.10;99.90
52034;DHT22;38045;52.988;6.536;2023-04-03T06:02:19;1.10;99.90
52034;DHT22;38045;52.988;6.536;2023-04-03T06:04:45;1.10;99.90
52034;DHT22;38045;52.988;6.536;2023-04-03T06:07:19;1.20;99.90
52034;DHT22;38045;52.988;6.536;2023-04-03T06:09:46;1.30;99.90
52034;DHT22;38045;52.988;6.536;2023-04-03T06:12:12;1.30;99.90
52034;DHT22;38045;52.988;6.536;2023-04-03T06:14:38;1.40;99.90
52034;DHT22;38045;52.988;6.536;2023-04-03T06:17:04;1.40;99.90
52034;DHT22;38045;52.988;6.536;2023-04-03T06:19:30;1.50;99.90
52034;DHT22;38045;52.988;6.536;2023-04-03T06:21:56;1.60;99.90
52034;DHT22;38045;52.988;6.536;2023-04-03T06:24:22;1.70;99.90
52034;DHT22;38045;52.988;6.536;2023-04-03T06:26:50;1.70;99.90
52034;DHT22;38045;52.988;6.536;2023-04-03T06:29:17;1.80;99.90
52034;DHT22;38045;52.988;6.536;2023-04-03T06:31:43;1.80;99.90
52034;DHT22;38045;52.988;6.536;2023-04-03T06:34:08;1.90;99.90
52034;DHT22;38045;52.988;6.536;2023-04-03T06:36:34;2.00;99.90
52034;DHT22;38045;52.988;6.536;2023-04-03T06:39:00;2.00;99.90
52034;DHT22;38045;52.988;6.536;2023-04-03T06:41:27;2.10;99.90
52034;DHT22;38045;52.988;6.536;2023-04-03T06:43:52;2.10;99.90
52034;DHT22;38045;52.988;6.536;2023-04-03T06:46:20;2.20;99.90
52034;DHT22;38045;52.988;6.536;2023-04-03T06:48:46;2.10;99.90
52034;DHT22;38045;52.988;6.536;2023-04-03T06:51:18;2.10;99.90
52034;DHT22;38045;52.988;6.536;2023-04-03T06:53:45;2.20;99.90
52034;DHT22;38045;52.988;6.536;2023-04-03T06:56:13;2.20;99.90
52034;DHT22;38045;52.988;6.536;2023-04-03T06:58:40;2.30;99.90
52034;DHT22;38045;52.988;6.536;2023-04-03T07:01:07;2.50;99.90
52034;DHT22;38045;52.988;6.536;2023-04-03T07:03:35;2.60;99.90
52034;DHT22;38045;52.988;6.536;2023-04-03T07:06:01;2.70;99.90
52034;DHT22;38045;52.988;6.536;2023-04-03T07:08:26;2.80;99.90
52034;DHT22;38045;52.988;6.536;2023-04-03T07:10:52;2.90;99.90
52034;DHT22;38045;52.988;6.536;2023-04-03T07:13:17;2.80;99.90
52034;DHT22;38045;52.988;6.536;2023-04-03T07:15:43;2.80;99.90
52034;DHT22;38045;52.988;6.536;2023-04-03T07:18:09;2.90;99.90
52034;DHT22;38045;52.988;6.536;2023-04-03T07:20:35;3.00;99.90
52034;DHT22;38045;52.988;6.536;2023-04-03T07:23:00;3.00;99.90
52034;DHT22;38045;52.988;6.536;2023-04-03T07:25:28;3.00;99.90
52034;DHT22;38045;52.988;6.536;2023-04-03T07:27:53;3.00;99.90
52034;DHT22;38045;52.988;6.536;2023-04-03T07:30:20;3.10;99.90
52034;DHT22;38045;52.988;6.536;2023-04-03T07:32:46;3.20;99.90
52034;DHT22;38045;52.988;6.536;2023-04-03T07:35:12;3.30;99.90
52034;DHT22;38045;52.988;6.536;2023-04-03T07:37:37;3.30;99.90
52034;DHT22;38045;52.988;6.536;2023-04-03T07:40:03;3.40;99.90
52034;DHT22;38045;52.988;6.536;2023-04-03T07:42:29;3.50;99.90
52034;DHT22;38045;52.988;6.536;2023-04-03T07:44:55;3.60;99.90
52034;DHT22;38045;52.988;6.536;2023-04-03T07:47:22;3.70;99.90
52034;DHT22;38045;52.988;6.536;2023-04-03T07:49:47;3.70;99.90
52034;DHT22;38045;52.988;6.536;2023-04-03T07:52:13;3.80;99.90
52034;DHT22;38045;52.988;6.536;2023-04-03T07:54:41;3.90;99.90
52034;DHT22;38045;52.988;6.536;2023-04-03T07:57:07;4.00;99.90
52034;DHT22;38045;52.988;6.536;2023-04-03T07:59:32;4.00;99.90
52034;DHT22;38045;52.988;6.536;2023-04-03T08:01:58;4.10;99.90
52034;DHT22;38045;52.988;6.536;2023-04-03T08:04:24;4.10;99.90
52034;DHT22;38045;52.988;6.536;2023-04-03T08:06:50;4.20;99.90
52034;DHT22;38045;52.988;6.536;2023-04-03T08:09:16;4.30;99.90
52034;DHT22;38045;52.988;6.536;2023-04-03T08:11:42;4.30;99.90
52034;DHT22;38045;52.988;6.536;2023-04-03T08:14:08;4.40;99.90
52034;DHT22;38045;52.988;6.536;2023-04-03T08:16:36;4.50;99.90
52034;DHT22;38045;52.988;6.536;2023-04-03T08:19:01;4.60;99.90
52034;DHT22;38045;52.988;6.536;2023-04-03T08:21:27;4.60;99.90
52034;DHT22;38045;52.988;6.536;2023-04-03T08:23:53;4.70;99.90
52034;DHT22;38045;52.988;6.536;2023-04-03T08:26:20;4.80;99.90
52034;DHT22;38045;52.988;6.536;2023-04-03T08:28:48;5.00;99.90
52034;DHT22;38045;52.988;6.536;2023-04-03T08:31:16;5.10;99.90
52034;DHT22;38045;52.988;6.536;2023-04-03T08:33:43;5.20;99.90
52034;DHT22;38045;52.988;6.536;2023-04-03T08:36:18;5.20;99.90
52034;DHT22;38045;52.988;6.536;2023-04-03T08:38:44;5.30;99.90
52034;DHT22;38045;52.988;6.536;2023-04-03T08:49:47;5.80;99.90
52034;DHT22;38045;52.988;6.536;2023-04-03T08:52:44;5.90;99.90
52034;DHT22;38045;52.988;6.536;2023-04-03T08:55:59;6.10;99.90
52034;DHT22;38045;52.988;6.536;2023-04-03T08:58:20;6.10;99.90
52034;DHT22;38045;52.988;6.536;2023-04-03T09:00:58;6.20;99.90
52034;DHT22;38045;52.988;6.536;2023-04-03T09:03:24;6.40;99.90
52034;DHT22;38045;52.988;6.536;2023-04-03T09:05:57;6.50;99.90
52034;DHT22;38045;52.988;6.536;2023-04-03T09:08:28;6.60;99.90
52034;DHT22;38045;52.988;6.536;2023-04-03T09:11:21;6.50;99.90
52034;DHT22;38045;52.988;6.536;2023-04-03T09:14:00;6.40;97.40
52034;DHT22;38045;52.988;6.536;2023-04-03T09:21:52;6.70;99.90
52034;DHT22;38045;52.988;6.536;2023-04-03T09:24:18;6.70;99.40
52034;DHT22;38045;52.988;6.536;2023-04-03T09:27:01;6.80;99.90
52034;DHT22;38045;52.988;6.536;2023-04-03T09:29:29;6.90;99.90
52034;DHT22;38045;52.988;6.536;2023-04-03T09:32:19;7.10;99.90
52034;DHT22;38045;52.988;6.536;2023-04-03T09:34:46;7.10;97.90
52034;DHT22;38045;52.988;6.536;2023-04-03T09:37:40;7.20;98.30
52034;DHT22;38045;52.988;6.536;2023-04-03T09:43:01;7.40;99.70
52034;DHT22;38045;52.988;6.536;2023-04-03T09:45:33;7.40;99.40
52034;DHT22;38045;52.988;6.536;2023-04-03T09:50:56;7.40;99.60
52034;DHT22;38045;52.988;6.536;2023-04-03T09:53:38;7.50;97.90
52034;DHT22;38045;52.988;6.536;2023-04-03T09:59:08;7.70;95.90
52034;DHT22;38045;52.988;6.536;2023-04-03T10:01:41;7.80;96.10
52034;DHT22;38045;52.988;6.536;2023-04-03T10:04:17;7.90;95.80
52034;DHT22;38045;52.988;6.536;2023-04-03T10:06:48;8.10;93.20
52034;DHT22;38045;52.988;6.536;2023-04-03T10:09:31;8.20;94.50
52034;DHT22;38045;52.988;6.536;2023-04-03T10:12:23;8.40;96.30
52034;DHT22;38045;52.988;6.536;2023-04-03T10:14:59;8.70;94.60
52034;DHT22;38045;52.988;6.536;2023-04-03T10:17:35;8.80;93.10
52034;DHT22;38045;52.988;6.536;2023-04-03T10:20:26;8.90;93.90
52034;DHT22;38045;52.988;6.536;2023-04-03T10:28:35;9.10;91.40
52034;DHT22;38045;52.988;6.536;2023-04-03T10:31:16;9.10;84.80
52034;DHT22;38045;52.988;6.536;2023-04-03T10:34:06;9.20;89.90
52034;DHT22;38045;52.988;6.536;2023-04-03T10:37:09;9.30;91.80
52034;DHT22;38045;52.988;6.536;2023-04-03T10:42:18;9.40;90.80
52034;DHT22;38045;52.988;6.536;2023-04-03T10:45:08;9.50;90.70
52034;DHT22;38045;52.988;6.536;2023-04-03T10:51:06;10.00;91.10
52034;DHT22;38045;52.988;6.536;2023-04-03T10:54:24;10.10;86.40
52034;DHT22;38045;52.988;6.536;2023-04-03T10:57:01;10.00;81.90
52034;DHT22;38045;52.988;6.536;2023-04-03T10:59:51;10.00;90.10
52034;DHT22;38045;52.988;6.536;2023-04-03T11:02:33;10.10;86.20
52034;DHT22;38045;52.988;6.536;2023-04-03T11:08:03;10.10;82.70
52034;DHT22;38045;52.988;6.536;2023-04-03T11:10:37;10.20;87.00
52034;DHT22;38045;52.988;6.536;2023-04-03T11:13:17;10.40;90.40
52034;DHT22;38045;52.988;6.536;2023-04-03T11:15:45;10.40;88.40
52034;DHT22;38045;52.988;6.536;2023-04-03T11:18:34;10.60;88.90
52034;DHT22;38045;52.988;6.536;2023-04-03T11:21:05;10.60;88.10
52034;DHT22;38045;52.988;6.536;2023-04-03T11:23:35;10.80;87.00
52034;DHT22;38045;52.988;6.536;2023-04-03T11:26:12;10.70;85.10
52034;DHT22;38045;52.988;6.536;2023-04-03T11:28:39;10.90;84.10
52034;DHT22;38045;52.988;6.536;2023-04-03T11:34:15;10.70;87.30
52034;DHT22;38045;52.988;6.536;2023-04-03T11:36:51;11.00;85.50
52034;DHT22;38045;52.988;6.536;2023-04-03T11:39:23;11.10;84.50
52034;DHT22;38045;52.988;6.536;2023-04-03T11:41:51;10.90;80.00
52034;DHT22;38045;52.988;6.536;2023-04-03T11:44:37;10.80;83.50
52034;DHT22;38045;52.988;6.536;2023-04-03T11:47:05;10.70;79.30
52034;DHT22;38045;52.988;6.536;2023-04-03T12:08:45;10.80;76.70
52034;DHT22;38045;52.988;6.536;2023-04-03T12:13:42;10.80;81.00
52034;DHT22;38045;52.988;6.536;2023-04-03T12:16:44;10.80;81.30
52034;DHT22;38045;52.988;6.536;2023-04-03T12:27:02;11.20;80.70
52034;DHT22;38045;52.988;6.536;2023-04-03T12:45:53;11.80;79.10
52034;DHT22;38045;52.988;6.536;2023-04-03T12:48:27;12.10;79.10
52034;DHT22;38045;52.988;6.536;2023-04-03T12:50:53;12.00;78.90
52034;DHT22;38045;52.988;6.536;2023-04-03T12:53:26;12.00;77.60
52034;DHT22;38045;52.988;6.536;2023-04-03T12:55:56;12.00;77.90
52034;DHT22;38045;52.988;6.536;2023-04-03T12:58:25;11.90;79.00
52034;DHT22;38045;52.988;6.536;2023-04-03T13:01:10;12.00;78.50
52034;DHT22;38045;52.988;6.536;2023-04-03T13:03:43;12.10;76.80
52034;DHT22;38045;52.988;6.536;2023-04-03T13:06:39;12.30;79.20
52034;DHT22;38045;52.988;6.536;2023-04-03T13:09:14;12.50;77.20
52034;DHT22;38045;52.988;6.536;2023-04-03T13:11:44;12.50;77.60
52034;DHT22;38045;52.988;6.536;2023-04-03T13:14:20;12.40;75.20
52034;DHT22;38045;52.988;6.536;2023-04-03T13:17:03;12.50;77.30
52034;DHT22;38045;52.988;6.536;2023-04-03T13:19:29;12.70;75.40
52034;DHT22;38045;52.988;6.536;2023-04-03T13:21:59;12.80;74.70
52034;DHT22;38045;52.988;6.536;2023-04-03T13:24:27;12.80;75.90
52034;DHT22;38045;52.988;6.536;2023-04-03T13:26:58;12.90;76.00
52034;DHT22;38045;52.988;6.536;2023-04-03T13:29:36;12.80;74.60
52034;DHT22;38045;52.988;6.536;2023-04-03T13:32:03;12.80;72.90
52034;DHT22;38045;52.988;6.536;2023-04-03T13:34:37;12.70;75.20
52034;DHT22;38045;52.988;6.536;2023-04-03T13:37:03;12.80;74.70
52034;DHT22;38045;52.988;6.536;2023-04-03T13:39:35;12.70;76.00
52034;DHT22;38045;52.988;6.536;2023-04-03T13:45:28;12.80;75.10
52034;DHT22;38045;52.988;6.536;2023-04-03T13:48:10;12.60;72.60
52034;DHT22;38045;52.988;6.536;2023-04-03T13:53:46;12.20;74.30
52034;DHT22;38045;52.988;6.536;2023-04-03T13:56:23;12.10;72.10
52034;DHT22;38045;52.988;6.536;2023-04-03T13:59:04;12.00;74.50
52034;DHT22;38045;52.988;6.536;2023-04-03T14:01:42;12.10;73.10
52034;DHT22;38045;52.988;6.536;2023-04-03T14:07:09;12.40;73.80
52034;DHT22;38045;52.988;6.536;2023-04-03T14:09:34;12.60;74.50
52034;DHT22;38045;52.988;6.536;2023-04-03T14:12:06;12.60;72.20
52034;DHT22;38045;52.988;6.536;2023-04-03T14:14:35;12.70;72.40
52034;DHT22;38045;52.988;6.536;2023-04-03T14:17:10;12.50;72.30
52034;DHT22;38045;52.988;6.536;2023-04-03T14:19:38;12.40;73.60
52034;DHT22;38045;52.988;6.536;2023-04-03T14:22:16;12.40;73.30
52034;DHT22;38045;52.988;6.536;2023-04-03T14:24:42;12.40;72.70
52034;DHT22;38045;52.988;6.536;2023-04-03T14:27:21;12.60;72.20
52034;DHT22;38045;52.988;6.536;2023-04-03T14:29:48;12.60;72.10
52034;DHT22;38045;52.988;6.536;2023-04-03T14:32:15;12.60;72.60
52034;DHT22;38045;52.988;6.536;2023-04-03T14:34:42;12.50;72.60
52034;DHT22;38045;52.988;6.536;2023-04-03T14:37:15;12.20;69.00
52034;DHT22;38045;52.988;6.536;2023-04-03T14:39:42;12.20;72.30
52034;DHT22;38045;52.988;6.536;2023-04-03T14:42:17;12.10;72.70
52034;DHT22;38045;52.988;6.536;2023-04-03T14:44:43;12.20;73.20
52034;DHT22;38045;52.988;6.536;2023-04-03T14:47:12;12.20;72.00
52034;DHT22;38045;52.988;6.536;2023-04-03T14:49:39;12.30;72.50
52034;DHT22;38045;52.988;6.536;2023-04-03T14:52:05;12.40;72.10
52034;DHT22;38045;52.988;6.536;2023-04-03T14:54:31;12.30;70.90
52034;DHT22;38045;52.988;6.536;2023-04-03T14:56:58;12.40;71.20
52034;DHT22;38045;52.988;6.536;2023-04-03T14:59:25;12.40;71.60
52034;DHT22;38045;52.988;6.536;2023-04-03T15:01:51;12.40;70.40
52034;DHT22;38045;52.988;6.536;2023-04-03T15:04:19;12.60;72.80
52034;DHT22;38045;52.988;6.536;2023-04-03T15:06:46;12.80;72.30
52034;DHT22;38045;52.988;6.536;2023-04-03T15:09:19;12.80;69.60
52034;DHT22;38045;52.988;6.536;2023-04-03T15:11:46;12.70;70.50
52034;DHT22;38045;52.988;6.536;2023-04-03T15:14:11;12.40;69.50
52034;DHT22;38045;52.988;6.536;2023-04-03T15:16:37;12.30;71.30
52034;DHT22;38045;52.988;6.536;2023-04-03T15:19:03;12.30;68.50
52034;DHT22;38045;52.988;6.536;2023-04-03T15:21:28;12.20;70.80
52034;DHT22;38045;52.988;6.536;2023-04-03T15:23:54;12.50;71.40
52034;DHT22;38045;52.988;6.536;2023-04-03T15:26:19;13.30;70.60
52034;DHT22;38045;52.988;6.536;2023-04-03T15:28:46;13.90;69.90
52034;DHT22;38045;52.988;6.536;2023-04-03T15:31:11;15.00;69.70
52034;DHT22;38045;52.988;6.536;2023-04-03T15:33:38;15.70;66.00
52034;DHT22;38045;52.988;6.536;2023-04-03T15:36:04;15.70;66.20
52034;DHT22;38045;52.988;6.536;2023-04-03T15:38:30;16.00;65.20
52034;DHT22;38045;52.988;6.536;2023-04-03T15:40:55;15.80;65.50
52034;DHT22;38045;52.988;6.536;2023-04-03T15:43:21;15.70;67.30
52034;DHT22;38045;52.988;6.536;2023-04-03T15:45:47;15.20;67.20
52034;DHT22;38045;52.988;6.536;2023-04-03T15:48:14;14.30;65.40
52034;DHT22;38045;52.988;6.536;2023-04-03T15:50:41;13.80;65.50
52034;DHT22;38045;52.988;6.536;2023-04-03T15:53:07;13.20;67.70
52034;DHT22;38045;52.988;6.536;2023-04-03T15:55:34;13.40;68.90
52034;DHT22;38045;52.988;6.536;2023-04-03T15:58:00;13.70;68.20
52034;DHT22;38045;52.988;6.536;2023-04-03T16:00:27;14.10;68.20
52034;DHT22;38045;52.988;6.536;2023-04-03T16:02:57;14.20;66.60
52034;DHT22;38045;52.988;6.536;2023-04-03T16:05:24;14.20;67.00
52034;DHT22;38045;52.988;6.536;2023-04-03T16:07:50;14.40;68.60
52034;DHT22;38045;52.988;6.536;2023-04-03T16:10:18;14.60;68.40
52034;DHT22;38045;52.988;6.536;2023-04-03T16:12:44;14.90;69.00
52034;DHT22;38045;52.988;6.536;2023-04-03T16:15:10;15.20;67.10
52034;DHT22;38045;52.988;6.536;2023-04-03T16:17:37;15.40;67.20
52034;DHT22;38045;52.988;6.536;2023-04-03T16:20:04;15.70;67.70
52034;DHT22;38045;52.988;6.536;2023-04-03T16:22:31;15.80;70.00
52034;DHT22;38045;52.988;6.536;2023-04-03T16:24:57;16.20;70.30
52034;DHT22;38045;52.988;6.536;2023-04-03T16:27:23;16.50;66.20
52034;DHT22;38045;52.988;6.536;2023-04-03T16:29:53;15.90;65.80
52034;DHT22;38045;52.988;6.536;2023-04-03T16:32:20;15.20;66.80
52034;DHT22;38045;52.988;6.536;2023-04-03T16:34:46;14.10;66.00
52034;DHT22;38045;52.988;6.536;2023-04-03T16:37:11;13.50;68.20
52034;DHT22;38045;52.988;6.536;2023-04-03T16:39:37;13.30;69.10
52034;DHT22;38045;52.988;6.536;2023-04-03T16:42:02;13.60;69.60
52034;DHT22;38045;52.988;6.536;2023-04-03T16:44:28;14.20;70.50
52034;DHT22;38045;52.988;6.536;2023-04-03T16:46:53;14.10;66.90
52034;DHT22;38045;52.988;6.536;2023-04-03T16:49:19;13.40;67.00
52034;DHT22;38045;52.988;6.536;2023-04-03T16:51:45;13.40;68.40
52034;DHT22;38045;52.988;6.536;2023-04-03T16:54:12;14.00;68.20
52034;DHT22;38045;52.988;6.536;2023-04-03T16:56:39;14.20;65.80
52034;DHT22;38045;52.988;6.536;2023-04-03T16:59:04;13.90;67.30
52034;DHT22;38045;52.988;6.536;2023-04-03T17:01:30;13.50;65.60
52034;DHT22;38045;52.988;6.536;2023-04-03T17:03:56;12.90;66.50
52034;DHT22;38045;52.988;6.536;2023-04-03T17:06:22;13.20;67.10
52034;DHT22;38045;52.988;6.536;2023-04-03T17:08:50;13.50;67.10
52034;DHT22;38045;52.988;6.536;2023-04-03T17:11:17;13.30;64.80
52034;DHT22;38045;52.988;6.536;2023-04-03T17:13:42;13.10;66.80
52034;DHT22;38045;52.988;6.536;2023-04-03T17:16:11;13.50;64.60
52034;DHT22;38045;52.988;6.536;2023-04-03T17:18:39;14.10;62.60
52034;DHT22;38045;52.988;6.536;2023-04-03T17:21:06;14.60;68.10
52034;DHT22;38045;52.988;6.536;2023-04-03T17:23:32;14.40;66.30
52034;DHT22;38045;52.988;6.536;2023-04-03T17:26:03;13.90;66.20
52034;DHT22;38045;52.988;6.536;2023-04-03T17:28:29;13.30;66.90
52034;DHT22;38045;52.988;6.536;2023-04-03T17:30:59;12.70;66.40